createdAt,value
2023-04-23T00:02:19.683Z,94934.13
2023-04-23T00:04:54.261Z,94936.22
2023-04-23T00:07:23.830Z,94928.28
2023-04-23T00:09:51.186Z,94929.28
2023-04-23T00:12:21.122Z,94934.56
2023-04-23T00:14:48.111Z,94923.41
2023-04-23T00:17:14.792Z,94926.63
2023-04-23T00:19:41.526Z,94929.28
2023-04-23T00:22:08.258Z,94931.34
2023-04-23T00:24:37.125Z,94932.97
2023-04-23T00:27:05.995Z,94941.72
2023-04-23T00:29:34.975Z,94927.66
2023-04-23T00:32:03.799Z,94927.91
2023-04-23T00:34:33.060Z,94932.97
2023-04-23T00:36:59.710Z,94924.44
2023-04-23T00:39:28.534Z,94922.63
2023-04-23T00:41:57.308Z,94922.38
2023-04-23T00:44:24.369Z,94927.09
2023-04-23T00:46:53.147Z,94925.47
2023-04-23T00:49:22.018Z,94924.44
2023-04-23T00:51:48.626Z,94925.47
2023-04-23T00:54:17.817Z,94922.81
2023-04-23T00:56:44.558Z,94927.34
2023-04-23T00:59:11.217Z,94927.09
2023-04-23T01:01:41.054Z,94922.81
2023-04-23T01:04:10.160Z,94928.13
2023-04-23T01:06:39.108Z,94929.97
2023-04-23T01:09:09.909Z,94927.34
2023-04-23T01:11:38.286Z,94934.47
2023-04-23T01:14:08.177Z,94921.22
2023-04-23T01:16:38.537Z,94931.81
2023-04-23T01:19:08.932Z,94922.25
2023-04-23T01:21:36.326Z,94918.78
2023-04-23T01:24:06.048Z,94921.22
2023-04-23T01:26:32.782Z,94914.31
2023-04-23T01:29:02.031Z,94920.63
2023-04-23T01:31:28.932Z,94924.91
2023-04-23T01:34:00.304Z,94924.91
2023-04-23T01:36:29.390Z,94931.03
2023-04-23T01:38:56.638Z,94935.50
2023-04-23T01:41:25.417Z,94934.69
2023-04-23T01:43:52.052Z,94926.72
2023-04-23T01:46:18.810Z,94931.22
2023-04-23T01:48:45.615Z,94936.50
2023-04-23T01:51:14.434Z,94935.50
2023-04-23T01:53:41.040Z,94940.81
2023-04-23T01:56:09.852Z,94933.84
2023-04-23T01:58:38.724Z,94946.09
2023-04-23T02:01:06.704Z,94937.53
2023-04-23T02:03:35.977Z,94935.94
2023-04-23T02:06:07.348Z,94940.19
2023-04-23T02:08:36.138Z,94937.53
2023-04-23T02:11:04.957Z,94937.53
2023-04-23T02:13:33.909Z,94934.31
2023-04-23T02:16:00.600Z,94939.63
2023-04-23T02:18:27.278Z,94942.28
2023-04-23T02:20:54.319Z,94949.19
2023-04-23T02:23:20.963Z,94950.22
2023-04-23T02:25:47.758Z,94944.91
2023-04-23T02:28:17.331Z,94944.91
2023-04-23T02:30:48.337Z,94944.91
2023-04-23T02:33:17.249Z,94942.13
2023-04-23T02:35:43.899Z,94944.09
2023-04-23T02:38:13.383Z,94943.31
2023-04-23T02:40:42.369Z,94938.44
2023-04-23T02:43:09.094Z,94947.00
2023-04-23T02:45:35.810Z,94940.88
2023-04-23T02:48:04.600Z,94941.69
2023-04-23T02:50:35.161Z,94942.69
2023-04-23T02:53:06.616Z,94945.34
2023-04-23T02:55:33.290Z,94943.75
2023-04-23T02:57:59.962Z,94941.09
2023-04-23T03:00:27.141Z,94943.75
2023-04-23T03:02:56.113Z,94949.03
2023-04-23T03:05:23.142Z,94944.78
2023-04-23T03:07:51.879Z,94954.34
2023-04-23T03:10:18.595Z,94946.63
2023-04-23T03:12:47.660Z,94954.34
2023-04-23T03:15:18.119Z,94957.22
2023-04-23T03:17:47.257Z,94956.41
2023-04-23T03:20:16.559Z,94952.72
2023-04-23T03:22:45.954Z,94962.53
2023-04-23T03:25:12.613Z,94963.31
2023-04-23T03:27:44.632Z,94965.19
2023-04-23T03:30:11.647Z,94969.06
2023-04-23T03:32:38.804Z,94961.72
2023-04-23T03:35:06.168Z,94962.75
2023-04-23T03:37:35.292Z,94965.38
2023-04-23T03:40:07.830Z,94967.25
2023-04-23T03:42:34.691Z,94964.59
2023-04-23T03:45:04.217Z,94969.06
2023-04-23T03:47:33.961Z,94968.28
2023-04-23T03:50:00.694Z,94970.69
2023-04-23T03:52:27.334Z,94968.50
2023-04-23T03:54:53.933Z,94963.66
2023-04-23T03:57:21.302Z,94971.94
2023-04-23T03:59:48.010Z,94976.44
2023-04-23T04:02:14.861Z,94980.13
2023-04-23T04:04:46.222Z,94979.31
2023-04-23T04:07:15.842Z,94980.13
2023-04-23T04:09:42.467Z,94985.44
2023-04-23T04:12:09.231Z,94978.53
2023-04-23T04:14:41.839Z,94982.78
2023-04-23T04:17:09.237Z,94989.91
2023-04-23T04:19:35.998Z,94988.06
2023-04-23T04:22:03.750Z,94985.44
2023-04-23T04:24:32.638Z,94986.47
2023-04-23T04:27:02.498Z,94989.13
2023-04-23T04:29:31.226Z,94988.28
2023-04-23T04:32:00.445Z,94995.19
2023-04-23T04:34:27.780Z,94998.09
2023-04-23T04:36:56.635Z,94991.97
2023-04-23T04:39:23.409Z,94998.88
2023-04-23T04:41:51.303Z,94997.84
2023-04-23T04:44:17.965Z,94999.13
2023-04-23T04:46:46.778Z,95003.41
2023-04-23T04:49:14.182Z,95002.34
2023-04-23T04:51:43.594Z,95010.31
2023-04-23T04:54:12.379Z,95003.41
2023-04-23T04:56:41.330Z,95004.19
2023-04-23T04:59:07.997Z,94999.72
2023-04-23T05:01:37.969Z,95006.84
2023-04-23T05:04:05.140Z,95009.47
2023-04-23T05:06:32.590Z,95005.00
2023-04-23T05:09:01.512Z,95003.41
2023-04-23T05:11:28.216Z,95009.47
2023-04-23T05:13:54.887Z,95010.31
2023-04-23T05:16:26.776Z,95013.16
2023-04-23T05:18:53.477Z,95003.84
2023-04-23T05:21:20.196Z,95008.69
2023-04-23T05:23:49.910Z,95005.00
2023-04-23T05:26:18.786Z,95005.00
2023-04-23T05:28:48.159Z,95005.00
2023-04-23T05:31:16.976Z,95001.53
2023-04-23T05:33:50.489Z,95006.63
2023-04-23T05:36:20.745Z,95011.91
2023-04-23T05:38:49.875Z,95011.91
2023-04-23T05:41:18.668Z,95015.03
2023-04-23T05:43:47.597Z,95013.53
2023-04-23T05:46:14.451Z,95009.84
2023-04-23T05:48:43.490Z,95019.63
2023-04-23T05:51:15.499Z,95018.84
2023-04-23T05:53:45.357Z,95016.19
2023-04-23T05:56:12.060Z,95015.16
2023-04-23T05:58:43.670Z,95020.44
2023-04-23T06:01:10.561Z,95013.53
2023-04-23T06:03:42.011Z,95017.22
2023-04-23T06:06:08.782Z,95024.13
2023-04-23T06:08:40.313Z,95022.06
2023-04-23T06:11:09.232Z,95023.66
2023-04-23T06:13:42.989Z,95022.63
2023-04-23T06:16:12.607Z,95014.69
2023-04-23T06:18:41.496Z,95016.31
2023-04-23T06:21:08.526Z,95019.53
2023-04-23T06:23:35.571Z,95021.97
2023-04-23T06:26:04.335Z,95014.59
2023-04-23T06:28:33.770Z,95010.13
2023-04-23T06:31:02.710Z,95006.22
2023-04-23T06:33:29.729Z,95013.94
2023-04-23T06:35:56.518Z,95010.50
2023-04-23T06:38:25.305Z,95016.38
2023-04-23T06:40:54.950Z,95016.50
2023-04-23T06:43:24.225Z,95014.22
2023-04-23T06:45:53.933Z,95015.59
2023-04-23T06:48:22.222Z,95017.81
2023-04-23T06:50:49.197Z,95013.06
2023-04-23T06:53:16.104Z,95012.63
2023-04-23T06:55:45.776Z,95016.66
2023-04-23T06:58:16.183Z,95012.72
2023-04-23T07:00:43.280Z,95009.06
2023-04-23T07:03:10.095Z,95014.13
2023-04-23T07:05:36.982Z,95006.75
2023-04-23T07:08:03.744Z,95012.63
2023-04-23T07:10:30.635Z,95003.66
2023-04-23T07:12:57.482Z,95014.84
2023-04-23T07:15:24.540Z,95016.00
2023-04-23T07:17:53.487Z,95012.31
2023-04-23T07:20:24.903Z,95009.44
2023-04-23T07:22:53.868Z,95005.50
2023-04-23T07:25:22.599Z,95002.63
2023-04-23T07:27:49.398Z,95009.31
2023-04-23T07:30:16.358Z,95003.19
2023-04-23T07:32:43.581Z,94999.84
2023-04-23T07:35:12.516Z,95007.91
2023-04-23T07:37:39.231Z,95005.84
2023-04-23T07:40:07.870Z,94995.22
2023-04-23T07:42:34.613Z,94998.13
2023-04-23T07:45:01.465Z,94995.22
2023-04-23T07:47:30.590Z,94997.66
2023-04-23T07:49:59.665Z,95000.53
2023-04-23T07:52:26.342Z,95004.69
2023-04-23T07:54:56.112Z,95006.09
2023-04-23T07:57:24.970Z,95007.47
2023-04-23T07:59:51.899Z,94995.84
2023-04-23T08:02:23.709Z,94999.28
2023-04-23T08:04:50.764Z,95004.38
2023-04-23T08:07:19.800Z,95004.69
2023-04-23T08:09:48.655Z,95006.78
2023-04-23T08:12:17.457Z,94998.59
2023-04-23T08:14:44.637Z,94996.75
2023-04-23T08:17:13.645Z,94990.41
2023-04-23T08:19:42.917Z,94999.41
2023-04-23T08:22:13.489Z,94999.84
2023-04-23T08:24:41.037Z,94997.78
2023-04-23T08:27:07.754Z,94997.31
2023-04-23T08:29:34.389Z,94992.00
2023-04-23T08:32:01.112Z,94989.94
2023-04-23T08:34:27.904Z,94987.75
2023-04-23T08:36:56.690Z,94987.19
2023-04-23T08:39:28.076Z,94983.47
2023-04-23T08:41:55.516Z,94979.78
2023-04-23T08:44:23.625Z,94986.72
2023-04-23T08:46:50.367Z,94973.00
2023-04-23T08:49:17.970Z,94975.19
2023-04-23T08:51:54.126Z,94964.81
2023-04-23T08:54:26.953Z,94969.31
2023-04-23T08:56:59.980Z,94970.47
2023-04-23T08:59:26.766Z,94968.16
2023-04-23T09:01:54.129Z,94965.25
2023-04-23T09:04:24.830Z,94971.03
2023-04-23T09:06:54.262Z,94964.59
2023-04-23T09:09:23.811Z,94967.22
2023-04-23T09:11:52.210Z,94966.06
2023-04-23T09:14:22.581Z,94961.13
2023-04-23T09:16:49.395Z,94964.34
2023-04-23T09:19:16.168Z,94960.16
2023-04-23T09:21:45.099Z,94963.44
2023-04-23T09:24:12.240Z,94956.84
2023-04-23T09:26:49.810Z,94956.03
2023-04-23T09:29:18.590Z,94955.59
2023-04-23T09:31:52.350Z,94953.38
2023-04-23T09:34:19.396Z,94948.66
2023-04-23T09:36:46.876Z,94940.22
2023-04-23T09:39:23.177Z,94937.00
2023-04-23T09:41:54.082Z,94939.06
2023-04-23T09:44:24.317Z,94933.06
2023-04-23T09:46:53.590Z,94930.16
2023-04-23T09:49:20.575Z,94929.84
2023-04-23T09:51:50.467Z,94920.06
2023-04-23T09:54:27.371Z,94916.81
2023-04-23T09:56:59.582Z,94924.75
2023-04-23T09:59:39.505Z,94925.00
2023-04-23T10:02:15.799Z,94916.25
2023-04-23T10:04:42.885Z,94915.19
2023-04-23T10:09:43.741Z,94906.19
2023-04-23T10:12:27.746Z,94898.47
2023-04-23T10:14:59.808Z,94901.69
2023-04-23T10:17:26.509Z,94896.41
2023-04-23T10:19:53.200Z,94885.44
2023-04-23T10:22:20.403Z,94895.00
2023-04-23T10:24:50.478Z,94892.03
2023-04-23T10:27:30.822Z,94882.22
2023-04-23T10:30:05.505Z,94876.31
2023-04-23T10:32:38.059Z,94879.09
2023-04-23T10:35:08.882Z,94867.66
2023-04-23T10:37:36.602Z,94873.66
2023-04-23T10:40:12.509Z,94871.59
2023-04-23T10:42:42.906Z,94869.97
2023-04-23T10:47:48.561Z,94865.94
2023-04-23T10:50:36.046Z,94863.53
2023-04-23T10:53:03.137Z,94851.31
2023-04-23T10:55:32.650Z,94850.50
2023-04-23T10:58:06.231Z,94849.69
2023-04-23T11:00:42.114Z,94847.63
2023-04-23T11:03:43.610Z,94840.22
2023-04-23T11:06:19.702Z,94843.34
2023-04-23T11:08:54.078Z,94844.41
2023-04-23T11:11:26.331Z,94839.09
2023-04-23T11:13:55.730Z,94832.16
2023-04-23T11:16:23.299Z,94828.94
2023-04-23T11:19:06.532Z,94820.41
2023-04-23T11:22:02.159Z,94813.75
2023-04-23T11:24:42.881Z,94816.63
2023-04-23T11:27:11.615Z,94810.50
2023-04-23T11:29:40.126Z,94815.50
2023-04-23T11:32:10.934Z,94802.94
2023-04-23T11:34:38.577Z,94807.19
2023-04-23T11:37:09.901Z,94802.66
2023-04-23T11:39:36.887Z,94799.44
2023-04-23T11:42:05.300Z,94793.38
2023-04-23T11:44:34.267Z,94790.94
2023-04-23T11:47:03.520Z,94789.31
2023-04-23T11:49:30.258Z,94793.38
2023-04-23T11:51:59.445Z,94794.41
2023-04-23T11:54:27.616Z,94785.06
2023-04-23T11:56:56.745Z,94777.69
2023-04-23T11:59:25.606Z,94767.44
2023-04-23T12:01:55.334Z,94776.28
2023-04-23T12:04:23.850Z,94771.81
2023-04-23T12:06:51.276Z,94765.69
2023-04-23T12:09:19.383Z,94766.50
2023-04-23T12:11:50.922Z,94765.47
2023-04-23T12:14:18.365Z,94771.81
2023-04-23T12:16:52.434Z,94764.91
2023-04-23T12:19:22.249Z,94766.97
2023-04-23T12:21:56.066Z,94766.97
2023-04-23T12:24:23.756Z,94773.06
2023-04-23T12:26:54.650Z,94769.50
2023-04-23T12:29:24.498Z,94758.47
2023-04-23T12:31:54.870Z,94751.53
2023-04-23T12:34:24.158Z,94745.09
2023-04-23T12:36:52.210Z,94748.31
2023-04-23T12:39:24.453Z,94744.03
2023-04-23T12:41:53.101Z,94746.69
2023-04-23T12:44:20.507Z,94739.78
2023-04-23T12:47:00.307Z,94740.50
2023-04-23T12:49:29.752Z,94748.44
2023-04-23T12:52:01.469Z,94749.25
2023-04-23T12:54:39.736Z,94742.34
2023-04-23T12:57:07.428Z,94746.84
2023-04-23T12:59:36.384Z,94743.63
2023-04-23T13:02:07.003Z,94737.53
2023-04-23T13:04:35.432Z,94743.03
2023-04-23T13:07:04.488Z,94737.97
2023-04-23T13:09:36.072Z,94737.53
2023-04-23T13:12:02.891Z,94739.56
2023-04-23T13:14:32.007Z,94734.28
2023-04-23T13:16:58.690Z,94741.66
2023-04-23T13:19:25.592Z,94725.75
2023-04-23T13:21:52.358Z,94731.41
2023-04-23T13:24:20.171Z,94728.97
2023-04-23T13:26:47.292Z,94733.25
2023-04-23T13:29:16.349Z,94728.97
2023-04-23T13:31:45.589Z,94727.38
2023-04-23T13:34:14.547Z,94721.03
2023-04-23T13:36:43.952Z,94723.44
2023-04-23T13:39:13.375Z,94725.31
2023-04-23T13:41:40.845Z,94720.00
2023-04-23T13:44:09.747Z,94717.59
2023-04-23T13:46:40.240Z,94719.41
2023-04-23T13:49:07.853Z,94712.28
2023-04-23T13:51:35.784Z,94711.47
2023-04-23T13:54:02.948Z,94709.84
2023-04-23T13:56:30.560Z,94717.81
2023-04-23T13:59:18.460Z,94706.63
2023-04-23T14:01:50.263Z,94711.94
2023-04-23T14:04:17.811Z,94715.63
2023-04-23T14:06:44.535Z,94709.75
2023-04-23T14:09:11.461Z,94710.25
2023-04-23T14:11:40.288Z,94715.28
2023-04-23T14:14:07.599Z,94712.41
2023-04-23T14:16:36.478Z,94716.91
2023-04-23T14:19:03.212Z,94705.50
2023-04-23T14:21:29.932Z,94709.19
2023-04-23T14:23:59.519Z,94706.00
2023-04-23T14:29:11.080Z,94700.00
2023-04-23T14:31:40.660Z,94710.13
2023-04-23T14:34:09.570Z,94712.13
2023-04-23T14:36:36.438Z,94705.44
2023-04-23T14:39:05.037Z,94694.72
2023-04-23T14:41:32.836Z,94706.25
2023-04-23T14:44:04.800Z,94706.03
2023-04-23T14:46:31.513Z,94703.28
2023-04-23T14:48:58.152Z,94704.34
2023-04-23T14:51:27.489Z,94711.09
2023-04-23T14:53:56.439Z,94704.66
2023-04-23T14:56:25.653Z,94704.78
2023-04-23T14:58:54.461Z,94708.34
2023-04-23T15:01:23.298Z,94705.94
2023-04-23T15:03:55.180Z,94708.47
2023-04-23T15:06:21.992Z,94705.25
2023-04-23T15:08:50.783Z,94698.34
2023-04-23T15:11:20.117Z,94692.72
2023-04-23T15:13:52.869Z,94693.75
2023-04-23T15:19:06.414Z,94693.19
2023-04-23T15:21:35.325Z,94690.41
2023-04-23T15:24:01.946Z,94687.88
2023-04-23T15:26:32.736Z,94692.13
2023-04-23T15:29:04.980Z,94687.19
2023-04-23T15:31:31.781Z,94683.84
2023-04-23T15:33:58.562Z,94674.53
2023-04-23T15:36:27.360Z,94680.28
2023-04-23T15:38:56.191Z,94684.78
2023-04-23T15:41:22.878Z,94676.00
2023-04-23T15:43:53.837Z,94675.91
2023-04-23T15:46:22.737Z,94675.56
2023-04-23T15:48:49.404Z,94672.56
2023-04-23T15:51:18.222Z,94671.41
2023-04-23T15:53:44.931Z,94671.75
2023-04-23T15:56:13.779Z,94677.63
2023-04-23T15:58:40.619Z,94677.88
2023-04-23T16:01:07.587Z,94672.22
2023-04-23T16:03:34.713Z,94682.34
2023-04-23T16:06:01.843Z,94668.53
2023-04-23T16:08:36.235Z,94670.97
2023-04-23T16:11:07.101Z,94677.53
2023-04-23T16:13:36.090Z,94672.78
2023-04-23T16:16:02.775Z,94665.44
2023-04-23T16:18:31.852Z,94671.75
2023-04-23T16:20:58.911Z,94680.75
2023-04-23T16:23:27.904Z,94679.34
2023-04-23T16:25:56.801Z,94674.31
2023-04-23T16:28:23.442Z,94678.78
2023-04-23T16:30:50.315Z,94671.66
2023-04-23T16:33:19.720Z,94676.25
2023-04-23T16:35:48.765Z,94670.94
2023-04-23T16:38:15.652Z,94683.50
2023-04-23T16:40:42.635Z,94671.53
2023-04-23T16:43:10.459Z,94680.50
2023-04-23T16:45:38.834Z,94677.16
2023-04-23T16:48:06.861Z,94682.94
2023-04-23T16:50:33.729Z,94683.16
2023-04-23T16:53:02.843Z,94680.97
2023-04-23T16:55:29.517Z,94684.28
2023-04-23T16:57:59.472Z,94682.22
2023-04-23T17:00:26.273Z,94676.13
2023-04-23T17:02:57.773Z,94679.34
2023-04-23T17:05:24.699Z,94679.25
2023-04-23T17:07:52.845Z,94674.41
2023-04-23T17:10:19.749Z,94678.44
2023-04-23T17:12:53.902Z,94683.38
2023-04-23T17:15:22.840Z,94689.03
2023-04-23T17:17:52.973Z,94689.47
2023-04-23T17:20:21.801Z,94683.03
2023-04-23T17:22:48.540Z,94678.31
2023-04-23T17:25:19.927Z,94691.53
2023-04-23T17:27:46.873Z,94690.41
2023-04-23T17:30:13.851Z,94688.31
2023-04-23T17:32:46.060Z,94690.41
2023-04-23T17:35:12.899Z,94698.91
2023-04-23T17:37:41.657Z,94697.31
2023-04-23T17:40:09.793Z,94703.84
2023-04-23T17:42:36.424Z,94707.31
2023-04-23T17:45:03.470Z,94705.47
2023-04-23T17:47:32.358Z,94705.09
2023-04-23T17:50:01.218Z,94712.03
2023-04-23T17:52:27.961Z,94714.78
2023-04-23T17:54:56.808Z,94720.66
2023-04-23T17:57:23.557Z,94715.59
2023-04-23T17:59:50.149Z,94727.44
2023-04-23T18:02:17.179Z,94724.63
2023-04-23T18:04:49.322Z,94725.94
2023-04-23T18:07:15.969Z,94738.38
2023-04-23T18:09:45.005Z,94733.19
2023-04-23T18:12:14.038Z,94732.81
2023-04-23T18:14:42.903Z,94739.50
2023-04-23T18:17:09.688Z,94747.78
2023-04-23T18:19:38.602Z,94746.19
2023-04-23T18:22:08.273Z,94748.44
2023-04-23T18:24:37.191Z,94751.47
2023-04-23T18:27:06.275Z,94748.81
2023-04-23T18:29:35.218Z,94757.13
2023-04-23T18:32:04.198Z,94757.13
2023-04-23T18:34:32.641Z,94753.44
2023-04-23T18:37:04.512Z,94765.53
2023-04-23T18:39:36.649Z,94767.72
2023-04-23T18:42:03.491Z,94767.91
2023-04-23T18:44:32.404Z,94776.69
2023-04-23T18:47:01.172Z,94773.88
2023-04-23T18:49:49.727Z,94775.53
2023-04-23T18:52:18.915Z,94775.53
2023-04-23T18:54:45.887Z,94777.13
2023-04-23T18:57:12.607Z,94774.59
2023-04-23T18:59:39.578Z,94768.53
2023-04-23T19:02:09.107Z,94781.16
2023-04-23T19:04:39.110Z,94776.09
2023-04-23T19:07:08.679Z,94779.78
2023-04-23T19:09:40.553Z,94782.81
2023-04-23T19:12:07.339Z,94772.50
2023-04-23T19:14:33.987Z,94779.19
2023-04-23T19:17:02.914Z,94761.66
2023-04-23T19:19:32.073Z,94770.41
2023-04-23T19:22:01.066Z,94764.94
2023-04-23T19:24:28.994Z,94771.44
2023-04-23T19:26:57.935Z,94774.31
2023-04-23T19:29:26.952Z,94766.97
2023-04-23T19:31:53.626Z,94771.84
2023-04-23T19:34:22.461Z,94779.78
2023-04-23T19:36:53.785Z,94774.69
2023-04-23T19:39:22.706Z,94780.81
2023-04-23T19:41:52.618Z,94777.13
2023-04-23T19:44:19.304Z,94774.50
2023-04-23T19:46:48.474Z,94773.00
2023-04-23T19:49:20.619Z,94770.13
2023-04-23T19:51:49.495Z,94779.91
2023-04-23T19:54:16.223Z,94774.03
2023-04-23T19:56:42.864Z,94764.94
2023-04-23T19:59:13.951Z,94775.28
2023-04-23T20:01:40.974Z,94777.94
2023-04-23T20:04:09.915Z,94773.00
2023-04-23T20:06:38.802Z,94776.22
2023-04-23T20:09:08.523Z,94776.22
2023-04-23T20:11:37.865Z,94770.13
2023-04-23T20:14:04.593Z,94776.69
2023-04-23T20:16:35.984Z,94778.75
2023-04-23T20:19:04.929Z,94781.97
2023-04-23T20:21:37.694Z,94784.41
2023-04-23T20:24:08.965Z,94773.88
2023-04-23T20:26:36.273Z,94775.13
2023-04-23T20:29:05.194Z,94772.69
2023-04-23T20:31:33.989Z,94776.53
2023-04-23T20:34:00.939Z,94775.94
2023-04-23T20:36:31.747Z,94773.88
2023-04-23T20:38:59.318Z,94777.53
2023-04-23T20:41:34.375Z,94777.22
2023-04-23T20:44:05.022Z,94776.38
2023-04-23T20:46:32.386Z,94768.91
2023-04-23T20:49:00.879Z,94769.47
2023-04-23T20:51:34.438Z,94774.31
2023-04-23T20:54:01.839Z,94767.28
2023-04-23T20:56:30.787Z,94771.09
2023-04-23T20:58:57.871Z,94772.59
2023-04-23T21:01:27.371Z,94776.03
2023-04-23T21:03:56.841Z,94780.06
2023-04-23T21:06:23.673Z,94786.50
2023-04-23T21:08:52.536Z,94779.19
2023-04-23T21:11:19.740Z,94786.09
2023-04-23T21:13:46.568Z,94789.75
2023-04-23T21:16:15.486Z,94785.47
2023-04-23T21:18:45.353Z,94787.72
2023-04-23T21:21:14.314Z,94776.31
2023-04-23T21:23:40.980Z,94783.78
2023-04-23T21:26:12.912Z,94780.81
2023-04-23T21:28:41.721Z,94783.22
2023-04-23T21:31:21.578Z,94781.41
2023-04-23T21:33:50.402Z,94789.34
2023-04-23T21:36:19.310Z,94788.50
2023-04-23T21:38:48.188Z,94786.69
2023-04-23T21:41:14.892Z,94796.00
2023-04-23T21:43:43.772Z,94785.66
2023-04-23T21:46:10.433Z,94791.72
2023-04-23T21:48:39.229Z,94795.00
2023-04-23T21:51:07.850Z,94793.34
2023-04-23T21:53:34.598Z,94790.47
2023-04-23T21:56:01.258Z,94794.16
2023-04-23T21:58:28.002Z,94794.16
2023-04-23T22:00:56.971Z,94801.06
2023-04-23T22:03:37.991Z,94804.53
2023-04-23T22:06:08.643Z,94803.94
2023-04-23T22:08:38.160Z,94805.56
2023-04-23T22:11:05.821Z,94819.38
2023-04-23T22:13:32.437Z,94818.56
2023-04-23T22:15:59.408Z,94816.50
2023-04-23T22:18:28.813Z,94816.75
2023-04-23T22:20:57.967Z,94812.41
2023-04-23T22:23:29.379Z,94816.66
2023-04-23T22:25:56.174Z,94801.22
2023-04-23T22:28:22.848Z,94807.47
2023-04-23T22:30:50.049Z,94801.13
2023-04-23T22:33:21.391Z,94792.00
2023-04-23T22:35:50.298Z,94791.69
2023-04-23T22:38:21.919Z,94792.25
2023-04-23T22:40:48.590Z,94778.22
2023-04-23T22:43:19.977Z,94779.03
2023-04-23T22:45:46.590Z,94775.34
2023-04-23T22:48:15.903Z,94774.91
2023-04-23T22:50:45.795Z,94775.69
2023-04-23T22:53:12.530Z,94761.41
2023-04-23T22:55:41.912Z,94773.06
2023-04-23T22:58:10.703Z,94767.97
2023-04-23T23:00:37.415Z,94766.50
2023-04-23T23:03:04.200Z,94761.78
2023-04-23T23:05:33.066Z,94767.06
2023-04-23T23:08:00.044Z,94779.28
2023-04-23T23:10:28.904Z,94781.91
2023-04-23T23:12:55.596Z,94800.00
2023-04-23T23:15:24.494Z,94808.97
2023-04-23T23:17:53.915Z,94809.78
2023-04-23T23:20:22.978Z,94803.22
2023-04-23T23:22:49.664Z,94798.84
2023-04-23T23:25:18.472Z,94792.28
2023-04-23T23:27:47.698Z,94789.41
2023-04-23T23:30:16.728Z,94775.69
2023-04-23T23:32:45.700Z,94770.41
2023-04-23T23:35:14.630Z,94763.28
2023-04-23T23:37:41.401Z,94760.63
2023-04-23T23:40:11.320Z,94761.19
2023-04-23T23:42:37.993Z,94755.91
2023-04-23T23:45:05.188Z,94750.59
2023-04-23T23:47:34.278Z,94755.09
2023-04-23T23:50:04.043Z,94749.81
2023-04-23T23:52:32.925Z,94754.66
2023-04-23T23:54:59.612Z,94751.44
2023-04-23T23:57:28.560Z,94740.00
2023-04-23T23:59:57.419Z,94731.84
